Magog, Canada
Current Conditions -  °F | °C
As of 11:55 AM on Thursday 23 Oct 2014 (Local Time) from KEFK Reporting Station
Light Rain Light Rain  
Wind Chill: 35°   Ceiling: 900
Heat Index: 43°   Visibility: 10mi
Dew Point: 41°   Wind: 18mph
Humidity: 92%   Direction: 360°N
Pressure: 29.95"   Gusts: 23mph
Location:  45.26°N, 72.15°W
Report Text: KEFK 231555Z AUTO 36016G20KT 10SM -RA OVC009 06/05 A2995 RMK AO2 T00620050
Loading
Personal Weather Stations






























Interactive Weather Map
Tropical Storm Tracking
New forecast layout! Learn more

10-Day Weather Forecast

Advertisements
Track Severe Weather on mobile